Time;durP1;ratioP1;P1;durP2;ratioP2;P2;SDS_P1;SDS_P2;PMS_P1;PMS_P2;Temp;Humidity;BMP_temperature;BMP_pressure;BME280_temperature;BME280_humidity;BME280_pressure;Samples;Min_cycle;Max_cycle;Signal;HPM_P1;HPM_P2
2022/08/28 00:01:28;;;;;;;;;;;;;;;;;;5095622;28;20011;-75
2022/08/28 00:03:55;;;;;;;;;;;;;;;;;;5095840;28;19925;-74
2022/08/28 00:06:21;;;;;;;;;;;;;;;;;;5095780;28;20014;-75
2022/08/28 00:08:48;;;;;;;;;;;;;;;;;;5095901;28;19960;-74
2022/08/28 00:11:14;;;;;;;;;;;;;;;;;;5095234;28;19963;-75
2022/08/28 00:13:41;;;;;;;;;;;;;;;;;;5095598;28;19963;-75
2022/08/28 00:16:09;;;;;;;;;;;;;;;;;;5095892;28;19924;-74
2022/08/28 00:18:35;;;;;;;;;;;;;;;;;;5095476;28;19978;-76
2022/08/28 00:21:02;;;;;;;;;;;;;;;;;;5119110;22;20252;-80
2022/08/28 00:23:28;;;;;;;;;;;;;;;;;;5098201;28;20011;-80
2022/08/28 00:25:55;;;;;;;;;;;;;;;;;;5099858;28;19988;-79
2022/08/28 00:28:20;;;;;;;;;;;;;;;;;;5095284;28;19963;-78
2022/08/28 00:30:48;;;;;;;;;;;;;;;;;;5095672;28;19971;-78
2022/08/28 00:33:18;;;;;;;;;;;;;;;;;;5096731;28;19986;-79
2022/08/28 00:35:45;;;;;;;;;;;;;;;;;;5095918;28;19924;-77
2022/08/28 00:38:12;;;;;;;;;;;;;;;;;;5095682;28;19956;-79
2022/08/28 00:40:41;;;;;;;;;;;;;;;;;;5096129;28;19924;-77
2022/08/28 00:43:09;;;;;;;;;;;;;;;;;;5095491;28;19973;-79
2022/08/28 00:45:36;;;;;;;;;;;;;;;;;;5095538;28;19982;-75
2022/08/28 00:48:02;;;;;;;;;;;;;;;;;;5097061;28;19924;-80
2022/08/28 00:52:04;;;;;;;;;;;;;;;;;;5098040;28;19967;-80
2022/08/28 00:53:19;;;;;;;;;;;;;;;;;;5097842;28;19924;-80
2022/08/28 00:55:45;;;;;;;;;;;;;;;;;;5097090;28;19960;-80
2022/08/28 00:58:12;;;;;;;;;;;;;;;;;;5097614;28;20049;-78
2022/08/28 01:00:39;;;;;;;;;;;;;;;;;;5094801;28;19974;-78
2022/08/28 01:03:06;;;;;;;;;;;;;;;;;;5077388;28;19924;-78
2022/08/28 01:05:35;;;;;;;;;;;;;;;;;;5076744;28;20045;-79
2022/08/28 01:08:03;;;;;;;;;;;;;;;;;;5076017;28;19994;-79
2022/08/28 01:10:31;;;;;;;;;;;;;;;;;;5077065;28;19924;-80
2022/08/28 01:12:57;;;;;;;;;;;;;;;;;;5075788;28;19930;-77
2022/08/28 01:15:27;;;;;;;;;;;;;;;;;;5076291;28;19967;-78
2022/08/28 01:17:56;;;;;;;;;;;;;;;;;;5075600;28;19972;-79
2022/08/28 01:20:25;;;;;;;;;;;;;;;;;;5076140;28;19970;-77
2022/08/28 01:22:58;;;;;;;;;;;;;;;;;;5074167;28;19924;-78
2022/08/28 01:25:27;;;;;;;;;;;;;;;;;;5076571;28;19932;-80
2022/08/28 01:27:56;;;;;;;;;;;;;;;;;;5075942;28;20019;-79
2022/08/28 01:30:23;;;;;;;;;;;;;;;;;;5074639;28;20462;-77
2022/08/28 01:32:52;;;;;;;;;;;;;;;;;;5076203;28;19963;-79
2022/08/28 01:35:21;;;;;;;;;;;;;;;;;;5075731;28;19931;-78
2022/08/28 01:37:47;;;;;;;;;;;;;;;;;;5075789;28;20663;-80
2022/08/28 01:40:16;;;;;;;;;;;;;;;;;;5075036;28;20345;-78
2022/08/28 01:42:44;;;;;;;;;;;;;;;;;;5073366;28;19925;-77
2022/08/28 01:45:17;;;;;;;;;;;;;;;;;;5073536;28;19983;-78
2022/08/28 01:47:45;;;;;;;;;;;;;;;;;;5076059;28;19924;-77
2022/08/28 01:50:14;;;;;;;;;;;;;;;;;;5074618;28;19931;-77
2022/08/28 01:52:41;;;;;;;;;;;;;;;;;;5074773;28;20011;-80
2022/08/28 01:55:08;;;;;;;;;;;;;;;;;;5075220;28;20299;-78
2022/08/28 01:57:35;;;;;;;;;;;;;;;;;;5074764;28;19978;-78
2022/08/28 02:00:03;;;;;;;;;;;;;;;;;;5075424;28;19924;-78
2022/08/28 02:02:30;;;;;;;;;;;;;;;;;;5091867;28;19963;-79
2022/08/28 02:04:57;;;;;;;;;;;;;;;;;;5095033;28;19924;-77
2022/08/28 02:07:23;;;;;;;;;;;;;;;;;;5096059;28;20012;-79
2022/08/28 02:09:50;;;;;;;;;;;;;;;;;;5096550;28;19924;-79
2022/08/28 02:12:17;;;;;;;;;;;;;;;;;;5095395;28;19924;-78
2022/08/28 02:14:43;;;;;;;;;;;;;;;;;;5093564;28;20011;-79
2022/08/28 02:17:11;;;;;;;;;;;;;;;;;;5093532;28;20007;-78
2022/08/28 02:19:37;;;;;;;;;;;;;;;;;;5093138;28;19924;-77
2022/08/28 02:22:07;;;;;;;;;;;;;;;;;;5092882;28;19969;-78
2022/08/28 02:24:33;;;;;;;;;;;;;;;;;;5093056;28;19925;-78
2022/08/28 02:27:00;;;;;;;;;;;;;;;;;;5094052;28;20015;-78
2022/08/28 02:29:26;;;;;;;;;;;;;;;;;;5093127;28;19924;-78
2022/08/28 02:31:53;;;;;;;;;;;;;;;;;;5092863;28;20394;-78
2022/08/28 02:34:21;;;;;;;;;;;;;;;;;;5093321;28;19924;-78
2022/08/28 02:36:47;;;;;;;;;;;;;;;;;;5093311;28;19924;-77
2022/08/28 02:39:14;;;;;;;;;;;;;;;;;;5092770;28;19928;-78
2022/08/28 02:41:40;;;;;;;;;;;;;;;;;;5092706;28;19931;-78
2022/08/28 02:44:07;;;;;;;;;;;;;;;;;;5092588;28;20522;-78
2022/08/28 02:46:33;;;;;;;;;;;;;;;;;;5092771;28;19930;-78
2022/08/28 02:49:02;;;;;;;;;;;;;;;;;;5092793;28;19932;-79
2022/08/28 02:51:33;;;;;;;;;;;;;;;;;;5091638;28;20448;-78
2022/08/28 02:54:00;;;;;;;;;;;;;;;;;;5092849;28;19924;-78
2022/08/28 02:56:26;;;;;;;;;;;;;;;;;;5092443;28;19960;-78
2022/08/28 02:58:53;;;;;;;;;;;;;;;;;;5092372;28;20374;-78
2022/08/28 03:01:20;;;;;;;;;;;;;;;;;;5086418;28;20387;-79
2022/08/28 03:03:46;;;;;;;;;;;;;;;;;;5074640;28;19979;-80
2022/08/28 03:06:13;;;;;;;;;;;;;;;;;;5075635;28;20366;-80
2022/08/28 03:08:41;;;;;;;;;;;;;;;;;;5075051;28;19931;-80
2022/08/28 03:11:08;;;;;;;;;;;;;;;;;;5074363;28;19931;-80
2022/08/28 03:13:35;;;;;;;;;;;;;;;;;;5075020;28;19971;-80
2022/08/28 03:16:03;;;;;;;;;;;;;;;;;;5076989;28;19924;-79
2022/08/28 03:18:31;;;;;;;;;;;;;;;;;;5082297;28;19932;-78
2022/08/28 03:20:58;;;;;;;;;;;;;;;;;;5082050;28;19932;-79
2022/08/28 03:23:29;;;;;;;;;;;;;;;;;;5081924;28;19971;-80
2022/08/28 03:25:58;;;;;;;;;;;;;;;;;;5079386;28;20024;-80
2022/08/28 03:28:25;;;;;;;;;;;;;;;;;;5075875;28;19972;-80
2022/08/28 03:30:52;;;;;;;;;;;;;;;;;;5074865;28;20372;-80
2022/08/28 03:33:18;;;;;;;;;;;;;;;;;;5075599;28;19970;-79
2022/08/28 03:35:45;;;;;;;;;;;;;;;;;;5075561;28;19968;-80
2022/08/28 03:38:11;;;;;;;;;;;;;;;;;;5076077;28;19983;-80
2022/08/28 03:40:41;;;;;;;;;;;;;;;;;;5074389;28;19999;-80
2022/08/28 03:43:11;;;;;;;;;;;;;;;;;;5075048;28;19931;-80
2022/08/28 03:45:37;;;;;;;;;;;;;;;;;;5075055;28;20334;-80
2022/08/28 03:48:04;;;;;;;;;;;;;;;;;;5074856;28;19984;-80
2022/08/28 03:50:30;;;;;;;;;;;;;;;;;;5074253;28;20013;-80
2022/08/28 03:52:58;;;;;;;;;;;;;;;;;;5074219;28;19967;-80
2022/08/28 03:55:25;;;;;;;;;;;;;;;;;;5074657;28;20374;-79
2022/08/28 03:57:51;;;;;;;;;;;;;;;;;;5075165;28;19994;-77
2022/08/28 04:00:20;;;;;;;;;;;;;;;;;;5073983;28;19960;-80
2022/08/28 04:02:46;;;;;;;;;;;;;;;;;;5094348;28;19928;-80
2022/08/28 04:05:16;;;;;;;;;;;;;;;;;;5098250;28;20429;-78
2022/08/28 04:07:42;;;;;;;;;;;;;;;;;;5098456;28;20382;-80
2022/08/28 04:10:09;;;;;;;;;;;;;;;;;;5097958;28;20022;-80
2022/08/28 04:12:35;;;;;;;;;;;;;;;;;;5098119;28;19978;-80
2022/08/28 04:15:03;;;;;;;;;;;;;;;;;;5097733;28;19924;-80
2022/08/28 04:17:30;;;;;;;;;;;;;;;;;;5098194;28;19943;-78
2022/08/28 04:19:57;;;;;;;;;;;;;;;;;;5097574;28;19970;-80
2022/08/28 04:22:23;;;;;;;;;;;;;;;;;;5098529;28;20014;-79
2022/08/28 04:24:50;;;;;;;;;;;;;;;;;;5099257;28;20018;-78
2022/08/28 04:27:16;;;;;;;;;;;;;;;;;;5099183;28;19971;-80
2022/08/28 04:29:43;;;;;;;;;;;;;;;;;;5099060;28;20368;-80
2022/08/28 04:32:09;;;;;;;;;;;;;;;;;;5099052;28;20141;-80
2022/08/28 04:34:38;;;;;;;;;;;;;;;;;;5098912;28;19981;-80
2022/08/28 04:37:05;;;;;;;;;;;;;;;;;;5098034;28;19924;-79
2022/08/28 04:39:31;;;;;;;;;;;;;;;;;;5097916;28;19924;-79
2022/08/28 04:41:58;;;;;;;;;;;;;;;;;;5098311;28;19998;-80
2022/08/28 04:44:24;;;;;;;;;;;;;;;;;;5098003;28;20394;-79
2022/08/28 04:46:51;;;;;;;;;;;;;;;;;;5097999;28;19973;-78
2022/08/28 04:49:17;;;;;;;;;;;;;;;;;;5097457;28;19959;-79
2022/08/28 04:51:45;;;;;;;;;;;;;;;;;;5098568;28;20027;-80
2022/08/28 04:54:11;;;;;;;;;;;;;;;;;;5105240;28;19966;-78
2022/08/28 04:56:39;;;;;;;;;;;;;;;;;;5105152;28;19928;-80
2022/08/28 04:59:06;;;;;;;;;;;;;;;;;;5104658;28;19954;-78
2022/08/28 05:01:32;;;;;;;;;;;;;;;;;;5091167;28;20379;-80
2022/08/28 05:04:01;;;;;;;;;;;;;;;;;;5080498;28;19975;-80
2022/08/28 05:06:28;;;;;;;;;;;;;;;;;;5082146;28;19987;-79
2022/08/28 05:08:57;;;;;;;;;;;;;;;;;;5081902;28;19967;-81
2022/08/28 05:11:25;;;;;;;;;;;;;;;;;;5079486;28;19925;-80
2022/08/28 05:13:52;;;;;;;;;;;;;;;;;;5078340;28;19968;-79
2022/08/28 05:16:19;;;;;;;;;;;;;;;;;;5078107;28;19972;-80
2022/08/28 05:18:46;;;;;;;;;;;;;;;;;;5079405;28;20015;-79
2022/08/28 05:21:13;;;;;;;;;;;;;;;;;;5078631;28;19964;-81
2022/08/28 05:23:40;;;;;;;;;;;;;;;;;;5077854;28;20361;-81
2022/08/28 05:26:10;;;;;;;;;;;;;;;;;;5077817;28;20372;-81
2022/08/28 05:28:37;;;;;;;;;;;;;;;;;;5077944;28;20387;-81
2022/08/28 05:31:08;;;;;;;;;;;;;;;;;;5077367;28;19975;-81
2022/08/28 05:33:34;;;;;;;;;;;;;;;;;;5077443;28;20295;-80
2022/08/28 05:36:04;;;;;;;;;;;;;;;;;;5077905;28;19975;-81
2022/08/28 05:38:30;;;;;;;;;;;;;;;;;;5077397;28;19978;-78
2022/08/28 05:40:57;;;;;;;;;;;;;;;;;;5076997;28;19971;-78
2022/08/28 05:43:25;;;;;;;;;;;;;;;;;;5077015;28;20311;-80
2022/08/28 05:45:57;;;;;;;;;;;;;;;;;;5077076;28;19932;-81
2022/08/28 05:48:23;;;;;;;;;;;;;;;;;;5076795;28;19925;-80
2022/08/28 05:50:50;;;;;;;;;;;;;;;;;;5076184;28;20654;-81
2022/08/28 05:53:16;;;;;;;;;;;;;;;;;;5076886;28;19967;-81
2022/08/28 05:55:43;;;;;;;;;;;;;;;;;;5076739;28;20383;-79
2022/08/28 06:00:51;;;;;;;;;;;;;;;;;;5078104;28;20063;-79
2022/08/28 06:03:17;;;;;;;;;;;;;;;;;;5096328;28;19975;-81
2022/08/28 06:05:44;;;;;;;;;;;;;;;;;;5097396;28;20007;-79
2022/08/28 06:08:10;;;;;;;;;;;;;;;;;;5096452;28;20011;-79
2022/08/28 06:10:42;;;;;;;;;;;;;;;;;;5099381;28;19924;-79
2022/08/28 06:13:09;;;;;;;;;;;;;;;;;;5103549;28;19924;-77
2022/08/28 06:15:40;;;;;;;;;;;;;;;;;;5095293;28;19963;-79
2022/08/28 06:18:08;;;;;;;;;;;;;;;;;;5094460;28;19924;-79
2022/08/28 06:20:36;;;;;;;;;;;;;;;;;;5093232;28;20398;-79
2022/08/28 06:23:02;;;;;;;;;;;;;;;;;;5093370;28;19971;-78
2022/08/28 06:25:29;;;;;;;;;;;;;;;;;;5093208;28;19976;-77
2022/08/28 06:27:55;;;;;;;;;;;;;;;;;;5093639;28;20014;-78
2022/08/28 06:30:22;;;;;;;;;;;;;;;;;;5093105;28;19931;-78
2022/08/28 06:32:48;;;;;;;;;;;;;;;;;;5093534;28;20007;-77
2022/08/28 06:35:16;;;;;;;;;;;;;;;;;;5093640;28;19967;-77
2022/08/28 06:37:43;;;;;;;;;;;;;;;;;;5093997;28;19924;-78
2022/08/28 06:40:10;;;;;;;;;;;;;;;;;;5093714;28;19977;-78
2022/08/28 06:42:36;;;;;;;;;;;;;;;;;;5093975;28;19928;-77
2022/08/28 06:45:03;;;;;;;;;;;;;;;;;;5094229;28;19979;-78
2022/08/28 06:47:29;;;;;;;;;;;;;;;;;;5094663;28;19924;-78
2022/08/28 06:49:56;;;;;;;;;;;;;;;;;;5105630;28;19964;-77
2022/08/28 06:52:24;;;;;;;;;;;;;;;;;;5105221;28;19967;-77
2022/08/28 06:54:50;;;;;;;;;;;;;;;;;;5105787;28;19992;-77
2022/08/28 06:57:17;;;;;;;;;;;;;;;;;;5102871;28;19935;-79
2022/08/28 06:59:43;;;;;;;;;;;;;;;;;;5096573;28;19964;-78
2022/08/28 07:02:10;;;;;;;;;;;;;;;;;;5082516;28;19924;-79
2022/08/28 07:04:36;;;;;;;;;;;;;;;;;;5076479;28;19971;-80
2022/08/28 07:07:03;;;;;;;;;;;;;;;;;;5076796;28;20011;-79
2022/08/28 07:09:31;;;;;;;;;;;;;;;;;;5081849;28;19931;-77
2022/08/28 07:11:57;;;;;;;;;;;;;;;;;;5076648;28;19925;-79
2022/08/28 07:14:24;;;;;;;;;;;;;;;;;;5075572;28;20318;-78
2022/08/28 07:16:50;;;;;;;;;;;;;;;;;;5075766;28;19924;-79
2022/08/28 07:19:17;;;;;;;;;;;;;;;;;;5075785;28;20358;-78
2022/08/28 07:21:44;;;;;;;;;;;;;;;;;;5075452;28;19971;-79
2022/08/28 07:24:11;;;;;;;;;;;;;;;;;;5075832;28;20395;-79
2022/08/28 07:26:40;;;;;;;;;;;;;;;;;;5075342;28;19975;-78
2022/08/28 07:29:07;;;;;;;;;;;;;;;;;;5075312;28;19928;-78
2022/08/28 07:31:34;;;;;;;;;;;;;;;;;;5075705;28;20485;-79
2022/08/28 07:34:00;;;;;;;;;;;;;;;;;;5075429;28;20284;-79
2022/08/28 07:36:27;;;;;;;;;;;;;;;;;;5075648;28;19930;-79
2022/08/28 07:38:54;;;;;;;;;;;;;;;;;;5078390;28;20007;-79
2022/08/28 07:41:22;;;;;;;;;;;;;;;;;;5079648;28;19970;-79
2022/08/28 07:46:34;;;;;;;;;;;;;;;;;;5047103;28;19928;-79
2022/08/28 07:49:00;;;;;;;;;;;;;;;;;;5078381;28;19967;-78
2022/08/28 07:51:27;;;;;;;;;;;;;;;;;;5078696;28;19968;-79
2022/08/28 07:53:56;;;;;;;;;;;;;;;;;;5078673;28;19978;-78
2022/08/28 07:56:22;;;;;;;;;;;;;;;;;;5078129;28;19928;-78
2022/08/28 07:58:50;;;;;;;;;;;;;;;;;;5078272;28;19924;-78
2022/08/28 08:01:17;;;;;;;;;;;;;;;;;;5084470;28;19970;-78
2022/08/28 08:03:43;;;;;;;;;;;;;;;;;;5097983;28;19935;-79
2022/08/28 08:06:12;;;;;;;;;;;;;;;;;;5099633;28;20018;-79
2022/08/28 08:08:38;;;;;;;;;;;;;;;;;;5099374;28;19924;-78
2022/08/28 08:11:06;;;;;;;;;;;;;;;;;;5099492;28;19992;-78
2022/08/28 08:13:33;;;;;;;;;;;;;;;;;;5098884;28;20005;-79
2022/08/28 08:16:02;;;;;;;;;;;;;;;;;;5099015;28;19924;-78
2022/08/28 08:18:28;;;;;;;;;;;;;;;;;;5099230;28;20014;-79
2022/08/28 08:20:55;;;;;;;;;;;;;;;;;;5098764;28;19975;-78
2022/08/28 08:23:21;;;;;;;;;;;;;;;;;;5098921;28;19971;-80
2022/08/28 08:25:53;;;;;;;;;;;;;;;;;;5097960;28;19934;-77
2022/08/28 08:28:20;;;;;;;;;;;;;;;;;;5098610;28;19975;-78
2022/08/28 08:30:47;;;;;;;;;;;;;;;;;;5097614;28;19983;-77
2022/08/28 08:33:14;;;;;;;;;;;;;;;;;;5097711;28;19951;-78
2022/08/28 08:35:41;;;;;;;;;;;;;;;;;;5098109;28;20015;-78
2022/08/28 08:38:08;;;;;;;;;;;;;;;;;;5097806;28;20015;-78
2022/08/28 08:40:35;;;;;;;;;;;;;;;;;;5098169;28;19946;-78
2022/08/28 08:43:02;;;;;;;;;;;;;;;;;;5098011;28;19964;-78
2022/08/28 08:45:29;;;;;;;;;;;;;;;;;;5098146;28;20019;-77
2022/08/28 08:47:56;;;;;;;;;;;;;;;;;;5097945;28;19924;-78
2022/08/28 08:50:26;;;;;;;;;;;;;;;;;;5096321;28;19928;-77
2022/08/28 08:52:59;;;;;;;;;;;;;;;;;;5098672;28;20023;-79
2022/08/28 08:55:26;;;;;;;;;;;;;;;;;;5097992;28;20306;-79
2022/08/28 08:57:55;;;;;;;;;;;;;;;;;;5097682;28;19935;-78
2022/08/28 09:00:22;;;;;;;;;;;;;;;;;;5098005;28;20027;-80
2022/08/28 09:02:51;;;;;;;;;;;;;;;;;;5078094;28;19959;-78
2022/08/28 09:05:20;;;;;;;;;;;;;;;;;;5079092;28;20015;-77
2022/08/28 09:07:51;;;;;;;;;;;;;;;;;;5077232;28;20393;-81
2022/08/28 09:10:18;;;;;;;;;;;;;;;;;;5077062;28;19971;-77
2022/08/28 09:12:50;;;;;;;;;;;;;;;;;;5077221;28;19925;-78
2022/08/28 09:15:20;;;;;;;;;;;;;;;;;;5077492;28;19972;-78
2022/08/28 09:17:49;;;;;;;;;;;;;;;;;;5077760;28;19990;-80
2022/08/28 09:20:18;;;;;;;;;;;;;;;;;;5077141;28;19928;-79
2022/08/28 09:22:46;;;;;;;;;;;;;;;;;;5076812;28;19924;-80
2022/08/28 09:25:34;;;;;;;;;;;;;;;;;;5077748;28;19978;-79
2022/08/28 09:28:06;;;;;;;;;;;;;;;;;;5077872;28;19956;-79
2022/08/28 09:30:32;;;;;;;;;;;;;;;;;;5077709;28;19963;-78
2022/08/28 09:33:00;;;;;;;;;;;;;;;;;;5077602;28;19975;-79
2022/08/28 09:35:28;;;;;;;;;;;;;;;;;;5077604;28;19932;-80
2022/08/28 09:37:55;;;;;;;;;;;;;;;;;;5077968;28;19971;-79
2022/08/28 09:40:25;;;;;;;;;;;;;;;;;;5076930;28;20323;-79
2022/08/28 09:45:42;;;;;;;;;;;;;;;;;;5077546;28;19931;-79
2022/08/28 09:48:17;;;;;;;;;;;;;;;;;;5077000;28;19984;-80
2022/08/28 09:50:56;;;;;;;;;;;;;;;;;;5078445;28;19925;-79
2022/08/28 09:53:22;;;;;;;;;;;;;;;;;;5076947;28;19978;-79
2022/08/28 09:55:59;;;;;;;;;;;;;;;;;;5076494;28;19931;-79
2022/08/28 09:58:29;;;;;;;;;;;;;;;;;;5077595;28;19947;-79
2022/08/28 10:00:58;;;;;;;;;;;;;;;;;;5080699;28;19959;-79
2022/08/28 10:03:28;;;;;;;;;;;;;;;;;;5097447;28;20410;-79
2022/08/28 10:05:58;;;;;;;;;;;;;;;;;;5100949;28;20329;-78
2022/08/28 10:08:30;;;;;;;;;;;;;;;;;;5102937;28;20409;-77
2022/08/28 10:11:00;;;;;;;;;;;;;;;;;;5099515;28;20416;-79
2022/08/28 10:13:28;;;;;;;;;;;;;;;;;;5096904;28;19952;-79
2022/08/28 10:16:02;;;;;;;;;;;;;;;;;;5097805;28;19932;-79
2022/08/28 10:18:38;;;;;;;;;;;;;;;;;;5097028;28;19924;-80
2022/08/28 10:21:09;;;;;;;;;;;;;;;;;;5096454;28;19924;-79
2022/08/28 10:23:41;;;;;;;;;;;;;;;;;;5096406;28;19924;-81
2022/08/28 10:26:15;;;;;;;;;;;;;;;;;;5096529;28;20355;-79
2022/08/28 10:28:45;;;;;;;;;;;;;;;;;;5096794;28;19971;-79
2022/08/28 10:31:18;;;;;;;;;;;;;;;;;;5097050;28;19963;-79
2022/08/28 10:33:52;;;;;;;;;;;;;;;;;;5104290;28;19946;-78
2022/08/28 10:36:19;;;;;;;;;;;;;;;;;;5103454;28;20062;-79
2022/08/28 10:38:48;;;;;;;;;;;;;;;;;;5105137;28;19924;-78
2022/08/28 10:41:19;;;;;;;;;;;;;;;;;;5102408;28;19959;-80
2022/08/28 10:43:46;;;;;;;;;;;;;;;;;;5097399;28;19924;-79
2022/08/28 10:46:14;;;;;;;;;;;;;;;;;;5097517;28;19970;-79
2022/08/28 10:48:43;;;;;;;;;;;;;;;;;;5097438;28;19970;-79
2022/08/28 10:51:13;;;;;;;;;;;;;;;;;;5096617;28;19947;-79
2022/08/28 10:53:42;;;;;;;;;;;;;;;;;;5102852;28;19924;-79
2022/08/28 10:56:10;;;;;;;;;;;;;;;;;;5099935;28;19928;-78
2022/08/28 10:58:40;;;;;;;;;;;;;;;;;;5095455;28;19978;-78
2022/08/28 11:01:08;;;;;;;;;;;;;;;;;;5088570;28;19932;-78
2022/08/28 11:03:39;;;;;;;;;;;;;;;;;;5074593;28;19925;-79
2022/08/28 11:06:10;;;;;;;;;;;;;;;;;;5074679;28;19924;-79
2022/08/28 11:08:38;;;;;;;;;;;;;;;;;;5073452;28;19928;-78
2022/08/28 11:11:06;;;;;;;;;;;;;;;;;;5074231;28;19924;-78
2022/08/28 11:13:43;;;;;;;;;;;;;;;;;;5074033;28;19972;-79
2022/08/28 11:16:16;;;;;;;;;;;;;;;;;;5075708;28;19972;-80
2022/08/28 11:19:04;;;;;;;;;;;;;;;;;;5077778;28;19956;-80
2022/08/28 11:21:34;;;;;;;;;;;;;;;;;;5072911;28;19924;-80
2022/08/28 11:24:05;;;;;;;;;;;;;;;;;;5079282;28;19990;-80
2022/08/28 11:26:36;;;;;;;;;;;;;;;;;;5077573;28;20414;-79
2022/08/28 11:29:04;;;;;;;;;;;;;;;;;;5075941;28;19924;-79
2022/08/28 11:31:31;;;;;;;;;;;;;;;;;;5075486;28;20023;-80
2022/08/28 11:33:59;;;;;;;;;;;;;;;;;;5076282;28;20011;-79
2022/08/28 11:36:44;;;;;;;;;;;;;;;;;;5076923;28;19925;-80
2022/08/28 11:39:21;;;;;;;;;;;;;;;;;;5074475;28;19925;-79
2022/08/28 11:42:06;;;;;;;;;;;;;;;;;;5074223;28;19976;-78
2022/08/28 11:44:44;;;;;;;;;;;;;;;;;;5074476;28;19931;-78
2022/08/28 11:47:29;;;;;;;;;;;;;;;;;;5074214;28;19947;-79
2022/08/28 11:50:02;;;;;;;;;;;;;;;;;;5073404;28;19979;-78
2022/08/28 11:52:36;;;;;;;;;;;;;;;;;;5074022;28;19986;-79
2022/08/28 11:55:08;;;;;;;;;;;;;;;;;;5074710;28;20019;-80
2022/08/28 11:57:45;;;;;;;;;;;;;;;;;;5074986;28;19968;-79
2022/08/28 12:00:20;;;;;;;;;;;;;;;;;;5074720;28;20369;-79
2022/08/28 12:02:51;;;;;;;;;;;;;;;;;;5093943;28;19924;-79
2022/08/28 12:05:39;;;;;;;;;;;;;;;;;;5095637;28;19960;-79
2022/08/28 12:08:05;;;;;;;;;;;;;;;;;;5089858;28;19932;-80
2022/08/28 12:11:05;;;;;;;;;;;;;;;;;;5094255;28;20352;-79
2022/08/28 12:13:56;;;;;;;;;;;;;;;;;;5033104;28;20411;-79
2022/08/28 12:16:23;;;;;;;;;;;;;;;;;;5023048;28;19925;-79
2022/08/28 12:19:00;;;;;;;;;;;;;;;;;;5070612;28;19931;-80
2022/08/28 12:21:27;;;;;;;;;;;;;;;;;;5095079;28;20455;-80
2022/08/28 12:23:59;;;;;;;;;;;;;;;;;;5105727;22;20397;-78
2022/08/28 12:26:27;;;;;;;;;;;;;;;;;;5096551;28;20386;-79
2022/08/28 12:28:55;;;;;;;;;;;;;;;;;;5099620;28;19924;-80
2022/08/28 12:34:12;;;;;;;;;;;;;;;;;;5099796;28;20374;-80
2022/08/28 12:36:38;;;;;;;;;;;;;;;;;;5101177;28;19924;-79
2022/08/28 12:39:05;;;;;;;;;;;;;;;;;;5095948;28;20016;-77
2022/08/28 12:41:32;;;;;;;;;;;;;;;;;;5095398;28;19931;-78
2022/08/28 12:43:59;;;;;;;;;;;;;;;;;;5099726;28;20007;-78
2022/08/28 12:46:29;;;;;;;;;;;;;;;;;;5099571;28;20310;-80
2022/08/28 12:48:57;;;;;;;;;;;;;;;;;;5101056;28;19931;-79
2022/08/28 12:51:25;;;;;;;;;;;;;;;;;;5100285;28;19985;-79
2022/08/28 12:53:52;;;;;;;;;;;;;;;;;;5097233;28;20449;-80
2022/08/28 12:56:21;;;;;;;;;;;;;;;;;;5101602;28;19924;-78
2022/08/28 12:58:47;;;;;;;;;;;;;;;;;;5099299;28;20022;-79
2022/08/28 13:01:15;;;;;;;;;;;;;;;;;;5102964;28;19952;-79
2022/08/28 13:03:47;;;;;;;;;;;;;;;;;;5096026;28;19924;-78
2022/08/28 13:06:14;;;;;;;;;;;;;;;;;;5102261;28;19924;-80
2022/08/28 13:08:41;;;;;;;;;;;;;;;;;;5100559;28;19971;-78
2022/08/28 13:11:08;;;;;;;;;;;;;;;;;;5097636;28;20383;-77
2022/08/28 13:13:37;;;;;;;;;;;;;;;;;;5098502;28;19931;-80
2022/08/28 13:16:04;;;;;;;;;;;;;;;;;;5100804;28;19959;-78
2022/08/28 13:18:35;;;;;;;;;;;;;;;;;;5101834;28;20391;-79
2022/08/28 13:21:13;;;;;;;;;;;;;;;;;;5102470;28;19928;-80
2022/08/28 13:23:41;;;;;;;;;;;;;;;;;;5105387;28;19924;-79
2022/08/28 13:26:09;;;;;;;;;;;;;;;;;;5106025;28;19928;-79
2022/08/28 13:28:36;;;;;;;;;;;;;;;;;;5114752;28;19946;-78
2022/08/28 13:31:03;;;;;;;;;;;;;;;;;;5104581;28;20394;-77
2022/08/28 13:33:30;;;;;;;;;;;;;;;;;;5095751;28;19924;-77
2022/08/28 13:35:56;;;;;;;;;;;;;;;;;;5094775;28;20006;-78
2022/08/28 13:38:25;;;;;;;;;;;;;;;;;;5095234;28;20402;-77
2022/08/28 13:40:52;;;;;;;;;;;;;;;;;;5094783;28;19934;-78
2022/08/28 13:43:20;;;;;;;;;;;;;;;;;;5094992;28;19946;-78
2022/08/28 13:45:48;;;;;;;;;;;;;;;;;;5094731;28;20021;-78
2022/08/28 13:48:15;;;;;;;;;;;;;;;;;;5095088;28;19924;-78
2022/08/28 13:50:43;;;;;;;;;;;;;;;;;;5094021;28;19977;-79
2022/08/28 13:53:12;;;;;;;;;;;;;;;;;;5093332;28;20200;-77
2022/08/28 13:55:39;;;;;;;;;;;;;;;;;;5094223;28;19924;-78
2022/08/28 13:58:06;;;;;;;;;;;;;;;;;;5098149;28;20433;-79
2022/08/28 14:00:35;;;;;;;;;;;;;;;;;;5095202;28;19963;-78
2022/08/28 14:05:46;;;;;;;;;;;;;;;;;;5099505;28;19939;-80
2022/08/28 14:08:13;;;;;;;;;;;;;;;;;;5095336;28;19931;-78
2022/08/28 14:10:41;;;;;;;;;;;;;;;;;;5097953;28;19955;-80
2022/08/28 14:13:07;;;;;;;;;;;;;;;;;;5098507;28;19924;-79
2022/08/28 14:15:34;;;;;;;;;;;;;;;;;;5097504;28;19924;-78
2022/08/28 14:18:01;;;;;;;;;;;;;;;;;;5094999;28;20414;-77
2022/08/28 14:20:28;;;;;;;;;;;;;;;;;;5093967;28;19924;-78
2022/08/28 14:22:54;;;;;;;;;;;;;;;;;;5093709;28;19974;-78
2022/08/28 14:25:21;;;;;;;;;;;;;;;;;;5095068;28;19964;-77
2022/08/28 14:27:49;;;;;;;;;;;;;;;;;;5094354;28;20007;-79
2022/08/28 14:30:15;;;;;;;;;;;;;;;;;;5100217;28;19924;-80
2022/08/28 14:32:42;;;;;;;;;;;;;;;;;;5099173;28;19967;-78
2022/08/28 14:35:09;;;;;;;;;;;;;;;;;;5093705;28;20353;-79
2022/08/28 14:37:35;;;;;;;;;;;;;;;;;;5093609;28;19959;-78
2022/08/28 14:40:03;;;;;;;;;;;;;;;;;;5094823;28;20007;-80
2022/08/28 14:42:30;;;;;;;;;;;;;;;;;;5099784;28;19931;-79
2022/08/28 14:44:57;;;;;;;;;;;;;;;;;;5100644;28;19928;-80
2022/08/28 14:47:24;;;;;;;;;;;;;;;;;;5098446;28;20430;-80
2022/08/28 14:49:51;;;;;;;;;;;;;;;;;;5093243;28;19924;-79
2022/08/28 14:52:18;;;;;;;;;;;;;;;;;;5093265;28;19928;-78
2022/08/28 14:54:44;;;;;;;;;;;;;;;;;;5093266;28;20387;-79
2022/08/28 14:57:12;;;;;;;;;;;;;;;;;;5093110;28;19938;-79
2022/08/28 14:59:38;;;;;;;;;;;;;;;;;;5093055;28;20294;-79
2022/08/28 15:02:07;;;;;;;;;;;;;;;;;;5080392;28;20440;-79
2022/08/28 15:04:36;;;;;;;;;;;;;;;;;;5073333;28;20011;-78
2022/08/28 15:07:05;;;;;;;;;;;;;;;;;;5073715;28;19932;-79
2022/08/28 15:09:34;;;;;;;;;;;;;;;;;;5074057;28;20280;-79
2022/08/28 15:12:00;;;;;;;;;;;;;;;;;;5076696;28;19931;-78
2022/08/28 15:14:27;;;;;;;;;;;;;;;;;;5097907;28;19924;-79
2022/08/28 15:16:53;;;;;;;;;;;;;;;;;;5097503;28;19939;-80
2022/08/28 15:19:22;;;;;;;;;;;;;;;;;;5097223;28;19947;-80
2022/08/28 15:21:49;;;;;;;;;;;;;;;;;;5082014;28;19929;-77
2022/08/28 15:24:17;;;;;;;;;;;;;;;;;;5078598;28;19978;-79
2022/08/28 15:26:44;;;;;;;;;;;;;;;;;;5075981;28;19968;-78
2022/08/28 15:29:11;;;;;;;;;;;;;;;;;;5073810;28;20030;-78
2022/08/28 15:31:39;;;;;;;;;;;;;;;;;;5074642;28;19972;-80
2022/08/28 15:34:07;;;;;;;;;;;;;;;;;;5073241;28;19946;-79
2022/08/28 15:36:36;;;;;;;;;;;;;;;;;;5075975;28;19970;-79
2022/08/28 15:41:48;;;;;;;;;;;;;;;;;;5076509;28;19948;-78
2022/08/28 15:44:14;;;;;;;;;;;;;;;;;;5072896;28;19956;-79
2022/08/28 15:46:41;;;;;;;;;;;;;;;;;;5076859;28;20299;-81
2022/08/28 15:49:09;;;;;;;;;;;;;;;;;;5077590;28;20074;-81
2022/08/28 15:51:37;;;;;;;;;;;;;;;;;;5077486;28;20019;-80
2022/08/28 15:54:03;;;;;;;;;;;;;;;;;;5077791;28;19982;-79
2022/08/28 15:56:30;;;;;;;;;;;;;;;;;;5077720;28;20434;-80
2022/08/28 15:58:56;;;;;;;;;;;;;;;;;;5078738;28;20011;-80
2022/08/28 16:01:23;;;;;;;;;;;;;;;;;;5088768;28;19947;-80
2022/08/28 16:03:49;;;;;;;;;;;;;;;;;;5100746;28;20023;-78
2022/08/28 16:06:17;;;;;;;;;;;;;;;;;;5097680;28;19924;-78
2022/08/28 16:08:45;;;;;;;;;;;;;;;;;;5100650;28;19924;-77
2022/08/28 16:11:14;;;;;;;;;;;;;;;;;;5097537;28;20305;-77
2022/08/28 16:13:41;;;;;;;;;;;;;;;;;;5100802;28;20295;-79
2022/08/28 16:16:07;;;;;;;;;;;;;;;;;;5103023;28;19924;-79
2022/08/28 16:18:34;;;;;;;;;;;;;;;;;;5102587;28;20403;-79
2022/08/28 16:21:01;;;;;;;;;;;;;;;;;;5096681;28;19935;-77
2022/08/28 16:23:27;;;;;;;;;;;;;;;;;;5096494;28;19978;-77
2022/08/28 16:25:55;;;;;;;;;;;;;;;;;;5096457;28;19967;-77
2022/08/28 16:28:22;;;;;;;;;;;;;;;;;;5101075;28;20441;-79
2022/08/28 16:30:48;;;;;;;;;;;;;;;;;;5102933;28;19924;-80
2022/08/28 16:33:18;;;;;;;;;;;;;;;;;;5099104;28;20378;-76
2022/08/28 16:35:46;;;;;;;;;;;;;;;;;;5098946;28;19924;-77
2022/08/28 16:38:12;;;;;;;;;;;;;;;;;;5097798;28;20019;-77
2022/08/28 16:40:40;;;;;;;;;;;;;;;;;;5099484;28;19953;-79
2022/08/28 16:43:08;;;;;;;;;;;;;;;;;;5101824;28;20327;-80
2022/08/28 16:45:35;;;;;;;;;;;;;;;;;;5096715;28;19963;-77
2022/08/28 16:48:02;;;;;;;;;;;;;;;;;;5096531;28;19924;-77
2022/08/28 16:50:31;;;;;;;;;;;;;;;;;;5096997;28;19924;-78
2022/08/28 16:52:58;;;;;;;;;;;;;;;;;;5097364;28;19982;-77
2022/08/28 16:55:24;;;;;;;;;;;;;;;;;;5096538;28;19975;-78
2022/08/28 16:57:51;;;;;;;;;;;;;;;;;;5103169;28;19932;-77
2022/08/28 17:00:19;;;;;;;;;;;;;;;;;;5102022;28;19924;-80
2022/08/28 17:02:45;;;;;;;;;;;;;;;;;;5082998;28;19978;-78
2022/08/28 17:05:12;;;;;;;;;;;;;;;;;;5076298;28;20024;-77
2022/08/28 17:07:39;;;;;;;;;;;;;;;;;;5076307;28;20348;-78
2022/08/28 17:10:06;;;;;;;;;;;;;;;;;;5075039;28;20377;-78